Time;durP1;ratioP1;P1;durP2;ratioP2;P2;SDS_P1;SDS_P2;PMS_P1;PMS_P2;Temp;Humidity;BMP_temperature;BMP_pressure;BME280_temperature;BME280_humidity;BME280_pressure;Samples;Min_cycle;Max_cycle;Signal;HPM_P1;HPM_P2
2023/12/25 00:00:45;;;;;;;1.05;0.43;;;12.20;99.90;;;;;;4136579;28;20536;-68
2023/12/25 00:02:46;;;;;;;2.00;0.70;;;12.10;99.90;;;;;;4139756;28;20041;-68
2023/12/25 00:04:46;;;;;;;1.67;0.40;;;12.10;99.90;;;;;;4138876;28;20160;-68
2023/12/25 00:06:47;;;;;;;1.25;0.45;;;12.20;99.90;;;;;;4135738;28;20046;-68
2023/12/25 00:08:48;;;;;;;0.57;0.40;;;12.20;99.90;;;;;;4136186;28;20125;-69
2023/12/25 00:10:49;;;;;;;2.90;0.63;;;12.20;99.90;;;;;;4138717;28;20048;-69
2023/12/25 00:12:50;;;;;;;1.10;0.50;;;12.20;99.90;;;;;;4140586;28;20946;-69
2023/12/25 00:14:50;;;;;;;1.65;0.47;;;12.20;99.90;;;;;;4141569;28;20482;-68
2023/12/25 00:16:51;;;;;;;0.85;0.47;;;12.20;99.90;;;;;;4138556;28;20527;-68
2023/12/25 00:18:52;;;;;;;3.40;0.40;;;12.20;99.90;;;;;;4138432;28;20049;-69
2023/12/25 00:20:53;;;;;;;3.50;0.70;;;12.20;99.90;;;;;;4139199;28;20057;-68
2023/12/25 00:22:53;;;;;;;1.30;0.68;;;12.20;99.90;;;;;;4140123;28;20038;-68
2023/12/25 00:24:54;;;;;;;1.77;0.70;;;12.20;99.90;;;;;;4136677;28;20148;-68
2023/12/25 00:26:54;;;;;;;1.17;0.60;;;12.20;99.90;;;;;;4138871;28;20050;-68
2023/12/25 00:28:55;;;;;;;1.25;0.70;;;12.20;99.90;;;;;;4138381;28;20073;-68
2023/12/25 00:30:55;;;;;;;2.67;0.70;;;12.20;99.90;;;;;;4137541;28;20061;-68
2023/12/25 00:32:56;;;;;;;1.23;0.40;;;12.20;99.90;;;;;;4143262;28;20482;-68
2023/12/25 00:34:56;;;;;;;7.32;0.90;;;12.20;99.90;;;;;;4129896;28;20497;-68
2023/12/25 00:36:57;;;;;;;2.85;0.73;;;12.20;99.90;;;;;;4133290;28;20442;-68
2023/12/25 00:38:57;;;;;;;1.95;0.90;;;12.20;99.90;;;;;;4136352;28;20391;-68
2023/12/25 00:40:58;;;;;;;1.48;0.70;;;12.20;99.90;;;;;;4137773;28;20040;-68
2023/12/25 00:42:58;;;;;;;0.80;0.47;;;12.20;99.90;;;;;;4140561;28;20041;-68
2023/12/25 00:44:59;;;;;;;1.27;0.60;;;12.20;99.90;;;;;;4133952;28;20035;-68
2023/12/25 00:47:00;;;;;;;1.77;0.60;;;12.20;99.90;;;;;;4142566;28;20414;-68
2023/12/25 00:49:00;;;;;;;1.20;0.60;;;12.20;99.90;;;;;;4141388;28;20183;-68
2023/12/25 00:51:01;;;;;;;1.63;0.50;;;12.20;99.90;;;;;;4136094;28;20058;-68
2023/12/25 00:53:01;;;;;;;1.42;0.60;;;12.20;99.90;;;;;;4141626;28;20470;-68
2023/12/25 00:55:02;;;;;;;1.33;0.50;;;12.20;99.90;;;;;;4138966;28;20042;-69
2023/12/25 00:57:03;;;;;;;1.55;0.60;;;12.20;99.90;;;;;;4135127;28;20038;-68
2023/12/25 00:59:03;;;;;;;0.85;0.50;;;12.20;99.90;;;;;;4138666;28;20049;-68
2023/12/25 01:01:04;;;;;;;5.40;0.70;;;12.20;99.90;;;;;;4138752;28;20034;-68
2023/12/25 01:03:04;;;;;;;1.85;0.73;;;12.20;99.90;;;;;;4135016;28;20472;-68
2023/12/25 01:05:05;;;;;;;3.88;0.80;;;12.20;99.90;;;;;;4141521;28;20042;-68
2023/12/25 01:07:06;;;;;;;3.20;0.50;;;12.20;99.90;;;;;;4139155;28;20042;-68
2023/12/25 01:09:06;;;;;;;1.27;0.55;;;12.20;99.90;;;;;;4130776;28;20093;-68
2023/12/25 01:11:07;;;;;;;0.93;0.40;;;12.30;99.90;;;;;;4140034;28;20053;-68
2023/12/25 01:13:08;;;;;;;1.23;0.55;;;12.30;99.90;;;;;;4136613;28;20125;-68
2023/12/25 01:15:08;;;;;;;2.08;0.60;;;12.30;99.90;;;;;;4131869;28;20034;-69
2023/12/25 01:17:10;;;;;;;0.70;0.40;;;12.30;99.90;;;;;;4137981;28;20462;-69
2023/12/25 01:19:12;;;;;;;2.15;0.60;;;12.30;99.90;;;;;;4139383;28;20108;-69
2023/12/25 01:21:12;;;;;;;3.58;1.05;;;12.30;99.90;;;;;;4129515;28;20080;-69
2023/12/25 01:23:13;;;;;;;0.60;0.50;;;12.30;99.90;;;;;;4139277;28;20034;-68
2023/12/25 01:25:13;;;;;;;1.35;0.50;;;12.30;99.90;;;;;;4132863;28;20060;-68
2023/12/25 01:27:14;;;;;;;1.20;0.70;;;12.30;99.90;;;;;;4142616;28;20497;-68
2023/12/25 01:29:14;;;;;;;1.98;0.80;;;12.30;99.90;;;;;;4139518;28;20414;-68
2023/12/25 01:31:16;;;;;;;1.15;0.65;;;12.30;99.90;;;;;;4138017;28;20054;-69
2023/12/25 01:33:17;;;;;;;0.60;0.35;;;12.30;99.90;;;;;;4138039;28;20124;-69
2023/12/25 01:35:17;;;;;;;0.55;0.30;;;12.30;99.90;;;;;;4140008;28;20100;-69
2023/12/25 01:37:18;;;;;;;3.88;0.73;;;12.30;99.90;;;;;;4141983;28;20073;-68
2023/12/25 01:39:19;;;;;;;0.75;0.50;;;12.30;99.90;;;;;;4141005;28;20493;-87
2023/12/25 01:41:20;;;;;;;2.13;0.75;;;12.30;99.90;;;;;;4139949;28;20092;-86
2023/12/25 01:43:20;;;;;;;1.42;0.65;;;12.40;99.90;;;;;;4141513;28;20034;-85
2023/12/25 01:45:21;;;;;;;2.28;0.75;;;12.30;99.90;;;;;;4136338;28;20038;-86
2023/12/25 01:47:22;;;;;;;1.13;0.50;;;12.30;99.90;;;;;;4141309;28;20100;-87
2023/12/25 01:49:23;;;;;;;1.92;0.73;;;12.30;99.90;;;;;;4141231;28;20038;-86
2023/12/25 01:51:24;;;;;;;0.93;0.52;;;12.30;99.90;;;;;;4141059;28;20088;-87
2023/12/25 01:53:25;;;;;;;1.75;0.60;;;12.30;99.90;;;;;;4139712;28;20038;-87
2023/12/25 01:55:25;;;;;;;5.03;0.88;;;12.30;99.90;;;;;;4139752;28;20518;-87
2023/12/25 01:57:26;;;;;;;1.70;0.60;;;12.30;99.90;;;;;;4143549;28;20038;-87
2023/12/25 01:59:28;;;;;;;0.70;0.40;;;12.30;99.90;;;;;;4140433;28;20824;-87
2023/12/25 02:01:29;;;;;;;1.97;0.63;;;12.30;99.90;;;;;;4136434;28;20081;-86
2023/12/25 02:03:29;;;;;;;0.77;0.35;;;12.20;99.90;;;;;;4138899;28;20062;-87
2023/12/25 02:05:30;;;;;;;1.85;0.50;;;12.20;99.90;;;;;;4140563;28;20041;-86
2023/12/25 02:07:32;;;;;;;1.15;0.30;;;12.20;99.90;;;;;;4142374;28;20092;-87
2023/12/25 02:09:33;;;;;;;0.28;0.28;;;12.30;99.90;;;;;;4136851;28;20068;-86
2023/12/25 02:11:39;;;;;;;1.35;0.50;;;12.20;99.90;;;;;;4141432;28;20042;-87
2023/12/25 02:13:39;;;;;;;0.90;0.30;;;12.20;99.90;;;;;;4140256;28;20042;-87
2023/12/25 02:15:41;;;;;;;0.90;0.47;;;12.20;99.90;;;;;;4136525;28;20374;-74
2023/12/25 02:17:41;;;;;;;3.88;0.50;;;12.20;99.90;;;;;;4134668;28;20034;-86
2023/12/25 02:19:44;;;;;;;1.23;0.50;;;12.20;99.90;;;;;;4141290;28;20062;-86
2023/12/25 02:21:45;;;;;;;0.63;0.45;;;12.20;99.90;;;;;;4133475;28;20046;-86
2023/12/25 02:23:50;;;;;;;1.08;0.63;;;12.20;99.90;;;;;;4141282;28;20052;-86
2023/12/25 02:25:55;;;;;;;1.73;0.60;;;12.20;99.90;;;;;;4138537;28;20037;-86
2023/12/25 02:27:56;;;;;;;1.83;0.55;;;12.30;99.90;;;;;;4141595;28;20619;-86
2023/12/25 02:29:56;;;;;;;1.08;0.52;;;12.20;99.90;;;;;;4144360;28;20038;-87
2023/12/25 02:31:57;;;;;;;0.80;0.40;;;12.30;99.90;;;;;;4141831;28;20129;-87
2023/12/25 02:33:58;;;;;;;0.43;0.43;;;12.20;99.90;;;;;;4140729;28;20113;-87
2023/12/25 02:35:58;;;;;;;1.00;0.60;;;12.30;99.90;;;;;;4140792;28;20041;-87
2023/12/25 02:37:59;;;;;;;1.17;0.30;;;12.30;99.90;;;;;;4143670;28;20072;-86
2023/12/25 02:39:59;;;;;;;1.60;0.50;;;12.30;99.90;;;;;;4145813;28;20029;-86
2023/12/25 02:42:00;;;;;;;0.65;0.40;;;12.20;99.90;;;;;;4143225;28;20532;-86
2023/12/25 02:44:00;;;;;;;3.13;0.70;;;12.20;99.90;;;;;;4145719;28;20659;-87
2023/12/25 02:46:01;;;;;;;0.63;0.40;;;12.20;99.90;;;;;;4145751;28;20034;-86
2023/12/25 02:48:02;;;;;;;0.73;0.25;;;12.20;99.90;;;;;;4145739;28;20034;-87
2023/12/25 02:50:02;;;;;;;1.48;0.52;;;12.20;99.90;;;;;;4145380;28;20038;-86
2023/12/25 02:52:03;;;;;;;0.40;0.40;;;12.30;99.90;;;;;;4142391;28;20051;-86
2023/12/25 02:54:04;;;;;;;1.45;0.50;;;12.30;99.90;;;;;;4140005;28;20058;-87
2023/12/25 02:56:05;;;;;;;1.10;0.52;;;12.30;99.90;;;;;;4139513;28;20041;-87
2023/12/25 02:58:05;;;;;;;3.30;0.73;;;12.30;99.90;;;;;;4145377;28;20034;-86
2023/12/25 03:00:07;;;;;;;3.25;0.47;;;12.30;99.90;;;;;;4143539;28;20041;-85
2023/12/25 03:02:07;;;;;;;1.73;0.77;;;12.30;99.90;;;;;;4142338;28;20045;-87
2023/12/25 03:04:08;;;;;;;0.95;0.60;;;12.30;99.90;;;;;;4142594;28;20034;-87
2023/12/25 03:06:09;;;;;;;0.82;0.50;;;12.30;99.90;;;;;;4144291;28;20026;-87
2023/12/25 03:08:09;;;;;;;2.30;0.80;;;12.30;99.90;;;;;;4143086;28;20065;-86
2023/12/25 03:10:10;;;;;;;0.82;0.50;;;12.30;99.90;;;;;;4140544;28;20058;-86
2023/12/25 03:12:10;;;;;;;0.63;0.60;;;12.30;99.90;;;;;;4146916;28;20044;-87
2023/12/25 03:14:11;;;;;;;1.02;0.70;;;12.30;99.90;;;;;;4145451;28;20033;-87
2023/12/25 03:16:12;;;;;;;0.70;0.50;;;12.30;99.90;;;;;;4141531;28;20065;-83
2023/12/25 03:18:12;;;;;;;2.38;0.70;;;12.30;99.90;;;;;;4139664;28;20243;-86
2023/12/25 03:20:13;;;;;;;1.05;0.40;;;12.30;99.90;;;;;;4144571;28;20398;-85
2023/12/25 03:22:13;;;;;;;1.45;0.45;;;12.30;99.90;;;;;;4145114;28;20037;-86
2023/12/25 03:24:14;;;;;;;0.65;0.40;;;12.30;99.90;;;;;;4144913;28;20462;-87
2023/12/25 03:26:14;;;;;;;0.52;0.47;;;12.30;99.90;;;;;;4140486;28;20041;-87
2023/12/25 03:28:15;;;;;;;0.55;0.35;;;12.30;99.90;;;;;;4143650;28;20030;-87
2023/12/25 03:30:16;;;;;;;0.55;0.40;;;12.30;99.90;;;;;;4143986;28;20030;-86
2023/12/25 03:32:19;;;;;;;0.30;0.30;;;12.30;99.90;;;;;;4144932;28;20026;-87
2023/12/25 03:34:20;;;;;;;0.43;0.40;;;12.30;99.90;;;;;;4141227;28;20034;-86
2023/12/25 03:36:21;;;;;;;1.00;0.55;;;12.20;99.90;;;;;;4142019;28;20034;-87
2023/12/25 03:38:22;;;;;;;2.78;0.50;;;12.30;99.90;;;;;;4144672;28;20161;-87
2023/12/25 03:40:22;;;;;;;0.70;0.40;;;12.30;99.90;;;;;;4140726;28;20038;-86
2023/12/25 03:42:24;;;;;;;1.33;0.80;;;12.30;99.90;;;;;;4145661;28;20117;-81
2023/12/25 03:44:24;;;;;;;0.60;0.30;;;12.30;99.90;;;;;;4144830;28;20042;-86
2023/12/25 03:46:25;;;;;;;1.10;0.55;;;12.30;99.90;;;;;;4145853;28;20049;-87
2023/12/25 03:48:25;;;;;;;0.65;0.40;;;12.30;99.90;;;;;;4140109;28;20043;-86
2023/12/25 03:50:26;;;;;;;2.42;0.40;;;12.30;99.90;;;;;;4139197;28;20105;-86
2023/12/25 03:52:26;;;;;;;0.30;0.30;;;12.30;99.90;;;;;;4137770;28;20065;-87
2023/12/25 03:54:27;;;;;;;0.43;0.30;;;12.30;99.90;;;;;;4147882;28;20030;-86
2023/12/25 03:56:27;;;;;;;2.30;0.45;;;12.30;99.90;;;;;;4145202;28;20042;-87
2023/12/25 03:58:28;;;;;;;0.70;0.40;;;12.30;99.90;;;;;;4144205;28;20033;-86
2023/12/25 04:00:29;;;;;;;0.40;0.30;;;12.30;99.90;;;;;;4140844;28;20180;-69
2023/12/25 04:02:29;;;;;;;1.00;0.52;;;12.30;99.90;;;;;;4136422;28;20030;-69
2023/12/25 04:04:30;;;;;;;0.30;0.20;;;12.30;99.90;;;;;;4135538;28;20034;-69
2023/12/25 04:06:30;;;;;;;2.05;0.40;;;12.30;99.90;;;;;;4137110;28;20091;-69
2023/12/25 04:08:31;;;;;;;0.40;0.38;;;12.30;99.90;;;;;;4144695;28;20030;-69
2023/12/25 04:10:31;;;;;;;0.90;0.40;;;12.30;99.90;;;;;;4141865;28;21729;-69
2023/12/25 04:12:32;;;;;;;0.22;0.22;;;12.30;99.90;;;;;;4139350;28;20077;-69
2023/12/25 04:14:37;;;;;;;0.30;0.30;;;12.40;99.90;;;;;;4137792;28;20038;-69
2023/12/25 04:16:37;;;;;;;0.47;0.32;;;12.30;99.90;;;;;;4143671;28;20034;-69
2023/12/25 04:18:38;;;;;;;1.70;0.57;;;12.40;99.90;;;;;;4142346;28;20078;-69
2023/12/25 04:20:39;;;;;;;1.77;0.47;;;12.40;99.90;;;;;;4138317;28;20045;-69
2023/12/25 04:22:40;;;;;;;0.95;0.40;;;12.40;99.90;;;;;;4142304;28;20386;-69
2023/12/25 04:24:40;;;;;;;0.88;0.40;;;12.40;99.90;;;;;;4142314;28;20122;-69
2023/12/25 04:26:41;;;;;;;0.30;0.30;;;12.40;99.90;;;;;;4140782;28;20045;-69
2023/12/25 04:28:42;;;;;;;0.80;0.45;;;12.40;99.90;;;;;;4141589;28;20050;-69
2023/12/25 04:30:43;;;;;;;0.70;0.40;;;12.40;99.90;;;;;;4140433;28;20054;-70
2023/12/25 04:32:43;;;;;;;0.57;0.40;;;12.40;99.90;;;;;;4136654;28;20090;-69
2023/12/25 04:34:44;;;;;;;0.75;0.50;;;12.40;99.90;;;;;;4135781;28;20042;-69
2023/12/25 04:36:45;;;;;;;0.98;0.63;;;12.40;99.90;;;;;;4141499;28;20030;-69
2023/12/25 04:38:45;;;;;;;2.20;0.60;;;12.40;99.90;;;;;;4139718;28;20037;-69
2023/12/25 04:40:46;;;;;;;1.38;0.55;;;12.40;99.90;;;;;;4139468;28;20030;-69
2023/12/25 04:42:46;;;;;;;0.68;0.47;;;12.40;99.90;;;;;;4139571;28;20038;-69
2023/12/25 04:44:47;;;;;;;1.58;0.50;;;12.40;99.90;;;;;;4135382;28;20038;-69
2023/12/25 04:46:47;;;;;;;0.50;0.40;;;12.40;99.90;;;;;;4142926;28;20121;-69
2023/12/25 04:48:48;;;;;;;1.08;0.60;;;12.40;99.90;;;;;;4141849;28;20041;-69
2023/12/25 04:50:49;;;;;;;0.70;0.50;;;12.40;99.90;;;;;;4138126;28;20512;-69
2023/12/25 04:52:49;;;;;;;1.23;0.63;;;12.40;99.90;;;;;;4138216;28;20038;-69
2023/12/25 04:54:50;;;;;;;0.75;0.60;;;12.40;99.90;;;;;;4143503;28;20041;-69
2023/12/25 04:56:52;;;;;;;0.65;0.60;;;12.40;99.90;;;;;;4135973;28;20030;-69
2023/12/25 04:58:53;;;;;;;1.55;0.50;;;12.40;99.90;;;;;;4142296;28;20108;-69
2023/12/25 05:00:54;;;;;;;1.75;0.55;;;12.40;99.90;;;;;;4139023;28;20034;-69
2023/12/25 05:02:54;;;;;;;0.60;0.60;;;12.30;99.90;;;;;;4138414;28;20041;-69
2023/12/25 05:04:55;;;;;;;0.57;0.50;;;12.30;99.90;;;;;;4141081;28;20035;-69
2023/12/25 05:06:55;;;;;;;0.45;0.45;;;12.30;99.90;;;;;;4135061;28;20058;-69
2023/12/25 05:08:56;;;;;;;0.30;0.30;;;12.40;99.90;;;;;;4138485;28;20056;-70
2023/12/25 05:10:57;;;;;;;0.47;0.47;;;12.40;99.90;;;;;;4137081;28;20398;-66
2023/12/25 05:12:58;;;;;;;0.40;0.30;;;12.30;99.90;;;;;;4136766;28;20403;-66
2023/12/25 05:14:58;;;;;;;1.10;0.55;;;12.30;99.90;;;;;;4137382;28;20084;-66
2023/12/25 05:16:59;;;;;;;0.30;0.30;;;12.30;99.90;;;;;;4144784;28;20482;-67
2023/12/25 05:18:59;;;;;;;0.57;0.40;;;12.30;99.90;;;;;;4135203;28;20073;-66
2023/12/25 05:21:00;;;;;;;1.20;0.30;;;12.30;99.90;;;;;;4139536;28;20038;-66
2023/12/25 05:23:01;;;;;;;0.10;0.10;;;12.30;99.90;;;;;;4140153;28;20542;-66
2023/12/25 05:25:01;;;;;;;0.20;0.20;;;12.30;99.90;;;;;;4126022;28;20117;-67
2023/12/25 05:27:02;;;;;;;0.85;0.20;;;12.30;99.90;;;;;;4133774;28;20030;-66
2023/12/25 05:29:03;;;;;;;0.10;0.10;;;12.30;99.90;;;;;;4144320;28;20034;-66
2023/12/25 05:31:05;;;;;;;0.40;0.22;;;12.20;99.90;;;;;;4135786;28;20061;-66
2023/12/25 05:33:05;;;;;;;1.77;0.30;;;12.20;99.90;;;;;;4132866;28;20113;-66
2023/12/25 05:35:06;;;;;;;0.10;0.10;;;12.20;99.90;;;;;;4144879;28;20148;-68
2023/12/25 05:37:07;;;;;;;0.70;0.20;;;12.20;99.90;;;;;;4139433;28;20033;-66
2023/12/25 05:39:08;;;;;;;0.10;0.10;;;12.20;99.90;;;;;;4134740;28;20483;-66
2023/12/25 05:41:09;;;;;;;0.10;0.10;;;12.20;99.90;;;;;;4136247;28;20038;-66
2023/12/25 05:43:11;;;;;;;0.03;0.03;;;12.20;99.90;;;;;;4131240;28;20057;-66
2023/12/25 05:45:11;;;;;;;0.00;0.00;;;12.10;99.90;;;;;;4137428;28;20033;-68
2023/12/25 05:47:12;;;;;;;0.00;0.00;;;12.10;99.90;;;;;;4138960;28;20045;-66
2023/12/25 05:49:13;;;;;;;0.80;0.20;;;12.10;99.90;;;;;;4142080;28;20048;-66
2023/12/25 05:51:13;;;;;;;0.25;0.10;;;12.10;99.90;;;;;;4137483;28;20521;-66
2023/12/25 05:53:14;;;;;;;0.10;0.10;;;12.10;99.90;;;;;;4145416;28;20104;-67
2023/12/25 05:55:14;;;;;;;0.55;0.10;;;12.10;99.90;;;;;;4137624;28;20041;-66
2023/12/25 05:57:15;;;;;;;0.65;0.32;;;12.00;99.90;;;;;;4136686;28;20035;-66
2023/12/25 05:59:16;;;;;;;1.00;0.25;;;12.00;99.90;;;;;;4144222;28;20056;-67
2023/12/25 06:01:17;;;;;;;0.22;0.10;;;12.00;99.90;;;;;;4144977;28;20069;-67
2023/12/25 06:03:17;;;;;;;0.32;0.13;;;12.10;99.90;;;;;;4143138;28;20088;-66
2023/12/25 06:05:18;;;;;;;0.82;0.17;;;12.00;99.90;;;;;;4135871;28;20043;-66
2023/12/25 06:07:18;;;;;;;0.17;0.10;;;12.00;99.90;;;;;;4138529;28;20042;-66
2023/12/25 06:09:20;;;;;;;0.30;0.13;;;12.00;99.90;;;;;;4137864;28;20026;-66
2023/12/25 06:11:20;;;;;;;0.32;0.32;;;12.00;99.90;;;;;;4136508;28;20136;-66
2023/12/25 06:13:21;;;;;;;0.30;0.20;;;12.00;99.90;;;;;;4141600;28;20025;-66
2023/12/25 06:15:21;;;;;;;0.77;0.43;;;11.90;99.90;;;;;;4134067;28;20044;-66
2023/12/25 06:17:22;;;;;;;0.47;0.10;;;11.90;99.90;;;;;;4138534;28;20121;-66
2023/12/25 06:19:23;;;;;;;0.10;0.10;;;11.90;99.90;;;;;;4141251;28;20029;-69
2023/12/25 06:21:24;;;;;;;0.55;0.28;;;11.90;99.90;;;;;;4133374;28;20506;-72
2023/12/25 06:23:25;;;;;;;2.28;0.20;;;11.90;99.90;;;;;;4138670;28;20046;-74
2023/12/25 06:25:25;;;;;;;0.20;0.10;;;11.80;99.90;;;;;;4139637;28;20069;-73
2023/12/25 06:27:26;;;;;;;1.65;0.30;;;11.90;99.90;;;;;;4130491;28;20054;-74
2023/12/25 06:29:26;;;;;;;0.05;0.05;;;11.80;99.90;;;;;;4129251;28;20125;-74
2023/12/25 06:31:27;;;;;;;0.10;0.10;;;11.90;99.90;;;;;;4132936;28;20050;-74
2023/12/25 06:33:28;;;;;;;0.30;0.10;;;11.80;99.90;;;;;;4135444;28;20444;-75
2023/12/25 06:35:28;;;;;;;1.40;0.20;;;11.80;99.90;;;;;;4137924;28;20348;-75
2023/12/25 06:37:29;;;;;;;0.98;0.20;;;11.80;99.90;;;;;;4140340;28;20042;-75
2023/12/25 06:39:29;;;;;;;0.15;0.10;;;11.80;99.90;;;;;;4130307;28;20044;-75
2023/12/25 06:41:30;;;;;;;0.57;0.30;;;11.80;99.90;;;;;;4141079;28;20064;-75
2023/12/25 06:43:31;;;;;;;1.90;0.30;;;11.80;99.90;;;;;;4132472;28;20116;-75
2023/12/25 06:45:32;;;;;;;0.73;0.28;;;11.70;99.90;;;;;;4135365;28;20434;-75
2023/12/25 06:47:34;;;;;;;0.10;0.10;;;11.80;99.90;;;;;;4133600;28;20618;-75
2023/12/25 06:49:34;;;;;;;0.43;0.30;;;11.80;99.90;;;;;;4134900;28;20464;-75
2023/12/25 06:51:36;;;;;;;1.02;0.20;;;11.80;99.90;;;;;;4133711;28;20549;-75
2023/12/25 06:53:37;;;;;;;1.73;0.20;;;11.80;99.90;;;;;;4130336;28;20065;-75
2023/12/25 06:55:37;;;;;;;0.40;0.20;;;11.80;99.90;;;;;;4128434;28;20038;-75
2023/12/25 06:57:38;;;;;;;0.65;0.30;;;11.80;99.90;;;;;;4127796;28;20081;-75
2023/12/25 06:59:40;;;;;;;0.10;0.10;;;11.80;99.90;;;;;;4136559;28;20161;-76
2023/12/25 07:01:40;;;;;;;0.30;0.10;;;11.80;99.90;;;;;;4137177;28;20071;-74
2023/12/25 07:03:41;;;;;;;1.98;0.20;;;11.90;99.90;;;;;;4141450;28;20049;-74
2023/12/25 07:05:42;;;;;;;1.05;0.20;;;11.90;99.90;;;;;;4140448;28;20542;-74
2023/12/25 07:07:43;;;;;;;1.35;0.30;;;11.90;99.90;;;;;;4137007;28;20471;-74
2023/12/25 07:09:43;;;;;;;0.10;0.10;;;11.90;99.90;;;;;;4139651;28;20046;-73
2023/12/25 07:11:44;;;;;;;0.25;0.20;;;11.90;99.90;;;;;;4139656;28;20049;-74
2023/12/25 07:13:45;;;;;;;0.40;0.10;;;11.90;99.90;;;;;;4136534;28;20037;-74
2023/12/25 07:15:45;;;;;;;0.20;0.20;;;11.90;99.90;;;;;;4133395;28;20869;-73
2023/12/25 07:17:46;;;;;;;0.43;0.20;;;11.90;99.90;;;;;;4133468;28;20037;-73
2023/12/25 07:19:47;;;;;;;0.10;0.10;;;11.90;99.90;;;;;;4138515;28;20533;-73
2023/12/25 07:21:47;;;;;;;2.20;0.32;;;12.00;99.90;;;;;;4132448;28;20034;-72
2023/12/25 07:23:48;;;;;;;2.45;0.47;;;12.00;99.90;;;;;;4136487;28;20528;-73
2023/12/25 07:25:49;;;;;;;1.10;0.57;;;12.00;99.90;;;;;;4140301;28;20478;-73
2023/12/25 07:27:49;;;;;;;0.40;0.25;;;12.00;99.90;;;;;;4135213;28;20034;-75
2023/12/25 07:29:50;;;;;;;1.02;0.40;;;12.00;99.90;;;;;;4134231;28;20097;-73
2023/12/25 07:31:50;;;;;;;0.28;0.13;;;12.00;99.90;;;;;;4138209;28;20112;-73
2023/12/25 07:33:51;;;;;;;2.28;0.25;;;12.00;99.90;;;;;;4132889;28;20026;-73
2023/12/25 07:35:52;;;;;;;0.40;0.17;;;12.10;99.90;;;;;;4126589;28;20041;-74
2023/12/25 07:37:54;;;;;;;0.32;0.15;;;12.10;99.90;;;;;;4140508;28;20037;-74
2023/12/25 07:39:55;;;;;;;0.20;0.10;;;12.00;99.90;;;;;;4140968;28;20070;-65
2023/12/25 07:41:55;;;;;;;0.52;0.30;;;12.10;99.90;;;;;;4139793;28;20531;-65
2023/12/25 07:44:00;;;;;;;0.35;0.17;;;12.10;99.90;;;;;;4141180;28;20109;-65
2023/12/25 07:46:01;;;;;;;0.30;0.20;;;12.10;99.90;;;;;;4148417;28;20037;-65
2023/12/25 07:48:01;;;;;;;0.47;0.20;;;12.10;99.90;;;;;;4137483;28;20049;-66
2023/12/25 07:50:04;;;;;;;1.63;0.30;;;12.10;99.90;;;;;;4149503;28;20112;-68
2023/12/25 07:52:05;;;;;;;1.98;0.28;;;12.10;99.90;;;;;;4133256;28;20049;-67
2023/12/25 07:54:06;;;;;;;0.65;0.13;;;12.10;99.90;;;;;;4136984;28;20125;-67
2023/12/25 07:56:06;;;;;;;0.85;0.20;;;12.10;99.90;;;;;;4141167;28;20034;-67
2023/12/25 07:58:07;;;;;;;0.20;0.20;;;12.10;99.90;;;;;;4139974;28;20467;-67
2023/12/25 08:00:08;;;;;;;0.75;0.30;;;12.10;99.90;;;;;;4137361;28;20118;-68
2023/12/25 08:02:09;;;;;;;0.73;0.40;;;12.10;99.90;;;;;;4138406;28;20485;-67
2023/12/25 08:04:09;;;;;;;0.52;0.35;;;12.10;99.90;;;;;;4134258;28;20066;-67
2023/12/25 08:06:10;;;;;;;1.08;0.20;;;12.10;99.90;;;;;;4136271;28;20045;-67
2023/12/25 08:08:11;;;;;;;0.65;0.20;;;12.10;99.90;;;;;;4140634;28;20104;-67
2023/12/25 08:10:12;;;;;;;0.77;0.30;;;12.10;99.90;;;;;;4137072;28;20482;-67
2023/12/25 08:12:12;;;;;;;0.32;0.20;;;12.10;99.90;;;;;;4140041;28;20046;-67
2023/12/25 08:14:13;;;;;;;0.28;0.20;;;12.20;99.90;;;;;;4138754;28;20424;-67
2023/12/25 08:16:14;;;;;;;0.63;0.28;;;12.10;99.90;;;;;;4137551;28;20049;-67
2023/12/25 08:18:14;;;;;;;0.47;0.45;;;12.20;99.90;;;;;;4139079;28;20045;-67
2023/12/25 08:20:15;;;;;;;0.10;0.10;;;12.20;99.90;;;;;;4139397;28;20121;-67
2023/12/25 08:22:15;;;;;;;5.82;0.40;;;12.20;99.90;;;;;;4139431;28;20505;-67
2023/12/25 08:24:16;;;;;;;1.40;0.30;;;12.20;99.90;;;;;;4135191;28;20084;-68
2023/12/25 08:26:16;;;;;;;1.42;0.30;;;12.20;99.90;;;;;;4141192;28;20037;-67
2023/12/25 08:28:17;;;;;;;0.73;0.20;;;12.20;99.90;;;;;;4137640;28;20115;-67
2023/12/25 08:30:18;;;;;;;0.25;0.10;;;12.20;99.90;;;;;;4134212;28;20124;-67
2023/12/25 08:32:18;;;;;;;1.50;0.43;;;12.10;99.90;;;;;;4144727;28;20049;-67
2023/12/25 08:34:19;;;;;;;0.73;0.40;;;12.00;99.90;;;;;;4139796;28;20038;-67
2023/12/25 08:36:20;;;;;;;0.28;0.20;;;12.00;99.90;;;;;;4137062;28;20042;-67
2023/12/25 08:38:20;;;;;;;2.50;0.55;;;11.90;99.90;;;;;;4145190;28;20057;-67
2023/12/25 08:40:21;;;;;;;3.70;0.25;;;11.80;99.90;;;;;;4140805;28;20034;-67
2023/12/25 08:42:22;;;;;;;0.88;0.32;;;11.80;99.90;;;;;;4139770;28;20398;-67
2023/12/25 08:44:23;;;;;;;1.85;0.52;;;11.80;99.90;;;;;;4140020;28;20057;-67
2023/12/25 08:46:24;;;;;;;1.80;0.40;;;11.80;99.90;;;;;;4139385;28;20594;-66
2023/12/25 08:48:25;;;;;;;1.13;0.43;;;11.80;99.90;;;;;;4141211;28;20042;-67
2023/12/25 08:50:26;;;;;;;0.80;0.47;;;11.80;99.90;;;;;;4138591;28;20044;-67
2023/12/25 08:52:26;;;;;;;2.50;0.70;;;11.70;99.90;;;;;;4144929;28;20038;-67
2023/12/25 08:54:27;;;;;;;0.22;0.20;;;11.70;99.90;;;;;;4139676;28;20034;-67
2023/12/25 08:56:28;;;;;;;0.52;0.25;;;11.70;99.90;;;;;;4136602;28;20065;-68
2023/12/25 08:58:29;;;;;;;1.25;0.40;;;11.70;99.90;;;;;;4142207;28;20469;-64
2023/12/25 09:00:30;;;;;;;0.40;0.20;;;11.60;99.90;;;;;;4130063;28;20033;-66
2023/12/25 09:02:30;;;;;;;0.28;0.15;;;11.70;99.90;;;;;;4141459;28;20044;-64
2023/12/25 09:04:31;;;;;;;0.40;0.30;;;11.60;99.90;;;;;;4142297;28;20030;-64
2023/12/25 09:06:33;;;;;;;0.80;0.20;;;11.60;99.90;;;;;;4136011;28;20537;-64
2023/12/25 09:08:34;;;;;;;1.35;0.35;;;11.60;99.90;;;;;;4138879;28;20046;-64
2023/12/25 09:10:35;;;;;;;1.10;0.20;;;11.60;99.90;;;;;;4138552;28;20031;-64
2023/12/25 09:12:35;;;;;;;0.00;0.00;;;11.70;99.90;;;;;;4140434;28;20038;-63
2023/12/25 09:14:36;;;;;;;0.25;0.20;;;11.70;99.90;;;;;;4140031;28;20477;-64
2023/12/25 09:16:37;;;;;;;0.32;0.20;;;11.70;99.90;;;;;;4140928;28;20066;-64
2023/12/25 09:18:37;;;;;;;0.10;0.10;;;11.70;99.90;;;;;;4136814;28;20089;-64
2023/12/25 09:20:38;;;;;;;0.43;0.10;;;11.70;99.90;;;;;;4138239;28;20422;-64
2023/12/25 09:22:38;;;;;;;0.40;0.30;;;11.70;99.90;;;;;;4139519;28;20038;-64
2023/12/25 09:24:41;;;;;;;0.40;0.30;;;11.80;99.90;;;;;;4138803;28;20117;-64
2023/12/25 09:26:43;;;;;;;0.28;0.28;;;11.80;99.90;;;;;;4143711;28;20040;-64
2023/12/25 09:28:44;;;;;;;0.20;0.10;;;11.80;99.90;;;;;;4133272;28;20049;-64
2023/12/25 09:30:44;;;;;;;0.82;0.20;;;11.80;99.90;;;;;;4123555;28;20046;-64
2023/12/25 09:32:45;;;;;;;0.22;0.20;;;11.80;99.90;;;;;;4137850;28;20557;-64
2023/12/25 09:34:46;;;;;;;0.10;0.10;;;11.90;99.90;;;;;;4149698;28;20069;-64
2023/12/25 09:36:46;;;;;;;0.25;0.10;;;11.90;99.90;;;;;;4134306;28;20045;-64
2023/12/25 09:38:47;;;;;;;1.17;0.50;;;11.90;99.90;;;;;;4140313;28;20045;-64
2023/12/25 09:40:48;;;;;;;0.30;0.20;;;11.90;99.90;;;;;;4139666;28;20054;-64
2023/12/25 09:42:49;;;;;;;0.55;0.38;;;11.90;99.90;;;;;;4135795;28;21060;-64
2023/12/25 09:44:53;;;;;;;0.20;0.20;;;11.90;99.90;;;;;;4142106;28;20050;-64
2023/12/25 09:46:54;;;;;;;0.20;0.20;;;11.90;99.90;;;;;;4136221;28;20308;-64
2023/12/25 09:48:57;;;;;;;0.17;0.05;;;11.90;99.90;;;;;;4140558;28;20127;-64
2023/12/25 09:50:58;;;;;;;0.63;0.20;;;12.00;99.90;;;;;;4131892;28;20049;-64
2023/12/25 09:52:58;;;;;;;0.20;0.20;;;12.00;99.90;;;;;;4139029;28;20065;-64
2023/12/25 09:54:59;;;;;;;0.43;0.30;;;11.90;99.90;;;;;;4133974;28;20030;-64
2023/12/25 09:57:01;;;;;;;0.52;0.20;;;11.90;99.90;;;;;;4135463;28;20026;-64
2023/12/25 09:59:03;;;;;;;0.30;0.20;;;12.00;99.90;;;;;;4133304;28;20482;-65
2023/12/25 10:01:05;;;;;;;0.45;0.13;;;12.00;99.90;;;;;;4141221;28;20088;-64
2023/12/25 10:03:06;;;;;;;0.80;0.38;;;12.00;99.90;;;;;;4136885;28;20137;-64
2023/12/25 10:05:07;;;;;;;0.40;0.40;;;12.00;99.90;;;;;;4140085;28;20042;-65
2023/12/25 10:07:08;;;;;;;0.22;0.22;;;12.00;99.90;;;;;;4140902;28;20042;-64
2023/12/25 10:09:10;;;;;;;0.63;0.30;;;12.00;99.90;;;;;;4138794;28;20144;-64
2023/12/25 10:11:15;;;;;;;0.17;0.17;;;12.00;99.90;;;;;;4139592;28;20076;-65
2023/12/25 10:13:15;;;;;;;0.25;0.22;;;12.00;99.90;;;;;;4139552;28;20073;-65
2023/12/25 10:15:16;;;;;;;0.28;0.10;;;12.00;99.90;;;;;;4138328;28;20437;-66
2023/12/25 10:17:17;;;;;;;0.13;0.10;;;12.00;99.90;;;;;;4138982;28;20061;-64
2023/12/25 10:19:18;;;;;;;0.20;0.20;;;12.00;99.90;;;;;;4153652;28;20041;-78
2023/12/25 10:21:19;;;;;;;0.50;0.28;;;12.00;99.90;;;;;;4135332;28;20042;-70
2023/12/25 10:23:26;;;;;;;0.20;0.20;;;12.00;99.90;;;;;;4139499;28;20406;-70
2023/12/25 10:25:28;;;;;;;0.50;0.22;;;12.00;99.90;;;;;;4138802;28;20041;-68
2023/12/25 10:27:28;;;;;;;0.60;0.30;;;12.10;99.90;;;;;;4138873;28;20053;-69
2023/12/25 10:29:38;;;;;;;0.20;0.20;;;12.00;99.90;;;;;;4137661;28;20042;-70